Time;durP1;ratioP1;P1;durP2;ratioP2;P2;SDS_P1;SDS_P2;PMS_P1;PMS_P2;Temp;Humidity;BMP_temperature;BMP_pressure;BME280_temperature;BME280_humidity;BME280_pressure;Samples;Min_cycle;Max_cycle;Signal;HPM_P1;HPM_P2
2023/12/14 00:02:17;;;;;;;1.58;1.23;;;6.60;99.90;;;;;;5081689;28;20197;-83
2023/12/14 00:04:44;;;;;;;2.30;1.58;;;6.40;99.90;;;;;;5075638;28;20200;-83
2023/12/14 00:07:14;;;;;;;3.60;2.45;;;6.40;99.90;;;;;;5080737;28;20552;-83
2023/12/14 00:09:41;;;;;;;1.23;1.10;;;6.60;99.90;;;;;;5081880;28;20224;-82
2023/12/14 00:12:08;;;;;;;1.40;1.30;;;6.50;99.90;;;;;;5076087;28;20194;-82
2023/12/14 00:14:34;;;;;;;2.00;1.40;;;6.50;99.90;;;;;;5074505;28;20212;-82
2023/12/14 00:17:03;;;;;;;1.50;1.40;;;6.60;99.90;;;;;;5078484;28;20205;-82
2023/12/14 00:19:29;;;;;;;1.40;1.30;;;6.60;99.90;;;;;;5075949;28;20232;-82
2023/12/14 00:21:56;;;;;;;1.20;1.10;;;6.60;99.90;;;;;;5074690;28;20193;-82
2023/12/14 00:24:23;;;;;;;1.40;1.30;;;6.60;99.90;;;;;;5077945;28;20218;-83
2023/12/14 00:26:50;;;;;;;1.73;1.10;;;6.60;99.90;;;;;;5087541;28;20208;-82
2023/12/14 00:29:17;;;;;;;1.75;1.65;;;6.40;99.90;;;;;;5079792;28;20205;-82
2023/12/14 00:31:43;;;;;;;1.85;1.67;;;6.40;99.90;;;;;;5080588;28;20205;-82
2023/12/14 00:34:12;;;;;;;2.13;1.63;;;6.40;99.90;;;;;;5089397;28;20596;-83
2023/12/14 00:36:38;;;;;;;1.67;1.40;;;6.50;99.90;;;;;;5079000;28;20203;-82
2023/12/14 00:39:05;;;;;;;1.27;1.17;;;6.60;99.90;;;;;;5080733;28;20220;-82
2023/12/14 00:41:32;;;;;;;2.72;1.40;;;6.50;99.90;;;;;;5074528;28;20196;-82
2023/12/14 00:43:59;;;;;;;1.10;1.10;;;6.40;99.90;;;;;;5075631;28;20694;-83
2023/12/14 00:46:26;;;;;;;1.40;1.30;;;6.50;99.90;;;;;;5079777;28;21070;-82
2023/12/14 00:48:52;;;;;;;2.28;1.05;;;6.40;99.90;;;;;;5081744;28;20208;-82
2023/12/14 00:51:21;;;;;;;2.47;1.38;;;6.30;99.90;;;;;;5075479;28;20201;-82
2023/12/14 00:53:47;;;;;;;2.63;1.30;;;6.30;99.90;;;;;;5076125;28;20211;-82
2023/12/14 00:56:14;;;;;;;1.35;1.25;;;6.40;99.90;;;;;;5082026;28;20193;-83
2023/12/14 00:58:41;;;;;;;1.30;1.20;;;6.40;99.90;;;;;;5075877;28;20228;-83
2023/12/14 01:01:08;;;;;;;2.22;1.30;;;6.40;99.90;;;;;;5073120;28;20197;-83
2023/12/14 01:03:34;;;;;;;1.60;1.00;;;6.50;99.90;;;;;;5079948;28;20208;-83
2023/12/14 01:06:01;;;;;;;1.40;1.30;;;6.50;99.90;;;;;;5080237;28;20284;-82
2023/12/14 01:08:29;;;;;;;1.35;1.25;;;6.50;99.90;;;;;;5078764;28;20567;-82
2023/12/14 01:10:56;;;;;;;1.35;1.25;;;6.50;99.90;;;;;;5083320;28;20198;-82
2023/12/14 01:13:23;;;;;;;1.40;1.30;;;6.60;99.90;;;;;;5084511;28;20215;-83
2023/12/14 01:15:50;;;;;;;1.30;1.20;;;6.50;99.90;;;;;;5080424;28;20291;-82
2023/12/14 01:18:17;;;;;;;2.88;1.50;;;6.50;99.90;;;;;;5078165;28;20223;-82
2023/12/14 01:20:43;;;;;;;2.25;1.35;;;6.40;99.90;;;;;;5077041;28;20568;-83
2023/12/14 01:23:10;;;;;;;1.50;1.40;;;6.40;99.90;;;;;;5078171;28;20197;-83
2023/12/14 01:25:38;;;;;;;3.42;1.27;;;6.30;99.90;;;;;;5085293;28;20207;-83
2023/12/14 01:28:06;;;;;;;1.60;1.50;;;6.40;99.90;;;;;;5081990;28;20190;-82
2023/12/14 01:30:32;;;;;;;1.30;1.20;;;6.40;99.90;;;;;;5082885;28;20223;-82
2023/12/14 01:32:59;;;;;;;1.48;1.38;;;6.30;99.90;;;;;;5082870;28;20197;-82
2023/12/14 01:35:26;;;;;;;1.50;1.40;;;6.30;99.90;;;;;;5086254;28;20197;-83
2023/12/14 01:37:53;;;;;;;1.30;1.20;;;6.30;99.90;;;;;;5085073;28;20224;-82
2023/12/14 01:40:20;;;;;;;1.08;1.00;;;6.30;99.90;;;;;;5086564;28;20219;-82
2023/12/14 01:42:48;;;;;;;1.55;1.10;;;6.20;99.90;;;;;;5086300;28;20196;-82
2023/12/14 01:45:16;;;;;;;1.17;1.10;;;6.10;99.90;;;;;;5082461;28;20205;-83
2023/12/14 01:47:43;;;;;;;2.60;1.20;;;6.20;99.90;;;;;;5087968;28;20585;-82
2023/12/14 01:50:10;;;;;;;1.30;1.20;;;6.20;99.90;;;;;;5087827;28;20213;-83
2023/12/14 01:52:37;;;;;;;2.10;1.08;;;6.20;99.90;;;;;;5084659;28;20195;-83
2023/12/14 01:55:04;;;;;;;2.15;1.10;;;6.10;99.90;;;;;;5083003;28;20204;-83
2023/12/14 01:57:31;;;;;;;1.35;1.13;;;6.20;99.90;;;;;;5084239;28;20205;-83
2023/12/14 01:59:59;;;;;;;1.00;1.00;;;6.10;99.90;;;;;;5083103;28;20228;-82
2023/12/14 02:02:26;;;;;;;1.10;1.00;;;6.20;99.90;;;;;;5082137;28;20266;-82
2023/12/14 02:04:53;;;;;;;1.20;1.10;;;6.20;99.90;;;;;;5074510;28;20197;-83
2023/12/14 02:07:20;;;;;;;1.25;1.08;;;6.20;99.90;;;;;;5078416;28;20205;-82
2023/12/14 02:09:47;;;;;;;1.13;0.98;;;6.30;99.90;;;;;;5077077;28;20197;-82
2023/12/14 02:12:14;;;;;;;1.33;1.17;;;6.20;99.90;;;;;;5089211;28;20187;-82
2023/12/14 02:14:41;;;;;;;1.20;1.10;;;6.20;99.90;;;;;;5078683;28;20700;-83
2023/12/14 02:17:09;;;;;;;0.80;0.80;;;6.20;99.90;;;;;;5084875;28;20650;-84
2023/12/14 02:19:35;;;;;;;1.13;0.98;;;6.10;99.90;;;;;;5080911;28;20224;-83
2023/12/14 02:22:02;;;;;;;1.08;0.98;;;6.00;99.90;;;;;;5081461;28;20569;-82
2023/12/14 02:24:31;;;;;;;0.90;0.90;;;6.00;99.90;;;;;;5081169;28;20208;-82
2023/12/14 02:26:58;;;;;;;1.27;1.17;;;6.10;99.90;;;;;;5077589;28;20292;-82
2023/12/14 02:29:25;;;;;;;1.40;1.30;;;6.00;99.90;;;;;;5083583;28;20319;-82
2023/12/14 02:31:51;;;;;;;1.13;1.00;;;6.00;99.90;;;;;;5079191;28;20212;-82
2023/12/14 02:34:20;;;;;;;1.63;1.52;;;5.90;99.90;;;;;;5084635;28;20201;-82
2023/12/14 02:36:47;;;;;;;1.90;1.02;;;5.90;99.90;;;;;;5082041;28;20192;-82
2023/12/14 02:39:14;;;;;;;1.25;1.20;;;5.80;99.90;;;;;;5076981;28;20618;-82
2023/12/14 02:41:42;;;;;;;4.57;1.67;;;5.80;99.90;;;;;;5082078;28;20197;-83
2023/12/14 02:44:08;;;;;;;1.50;1.40;;;5.90;99.90;;;;;;5077054;28;20197;-82
2023/12/14 02:46:36;;;;;;;1.70;1.60;;;5.90;99.90;;;;;;5076282;28;20196;-82
2023/12/14 02:49:03;;;;;;;1.48;1.38;;;5.80;99.90;;;;;;5084751;28;20205;-82
2023/12/14 02:51:29;;;;;;;1.63;1.52;;;5.80;99.90;;;;;;5082301;28;20211;-82
2023/12/14 02:53:57;;;;;;;1.67;1.42;;;5.80;99.90;;;;;;5083925;28;20205;-82
2023/12/14 02:56:24;;;;;;;1.58;1.48;;;6.00;99.90;;;;;;5078656;28;20205;-83
2023/12/14 02:58:53;;;;;;;1.77;1.65;;;6.00;99.90;;;;;;5081705;28;20221;-82
2023/12/14 03:01:21;;;;;;;1.73;1.45;;;5.90;99.90;;;;;;5073738;28;20282;-82
2023/12/14 03:03:48;;;;;;;1.53;1.40;;;5.90;99.90;;;;;;5078204;28;20197;-82
2023/12/14 03:06:15;;;;;;;1.65;1.55;;;5.80;99.90;;;;;;5077465;28;20204;-82
2023/12/14 03:08:41;;;;;;;3.53;1.50;;;5.90;99.90;;;;;;5078487;28;20208;-82
2023/12/14 03:11:08;;;;;;;2.15;1.35;;;5.90;99.90;;;;;;5083128;28;20193;-82
2023/12/14 03:13:35;;;;;;;1.42;1.33;;;5.90;99.90;;;;;;5084885;28;20213;-83
2023/12/14 03:16:03;;;;;;;1.50;1.40;;;5.80;99.90;;;;;;5079602;28;20203;-82
2023/12/14 03:18:30;;;;;;;1.90;1.50;;;5.70;99.90;;;;;;5077887;28;20217;-83
2023/12/14 03:20:57;;;;;;;1.70;1.60;;;5.70;99.90;;;;;;5083314;28;20214;-84
2023/12/14 03:23:24;;;;;;;2.55;1.50;;;5.70;99.90;;;;;;5079445;28;20192;-83
2023/12/14 03:25:50;;;;;;;1.77;1.67;;;5.80;99.90;;;;;;5075678;28;20358;-83
2023/12/14 03:28:18;;;;;;;1.50;1.40;;;5.70;99.90;;;;;;5080344;28;20283;-82
2023/12/14 03:30:44;;;;;;;1.60;1.45;;;5.80;99.90;;;;;;5081211;28;20196;-82
2023/12/14 03:33:13;;;;;;;1.60;1.50;;;5.80;99.90;;;;;;5075016;28;20718;-82
2023/12/14 03:35:41;;;;;;;1.85;1.55;;;5.80;99.90;;;;;;5080865;28;20203;-83
2023/12/14 03:38:08;;;;;;;1.63;1.52;;;5.80;99.90;;;;;;5074524;28;20203;-83
2023/12/14 03:40:35;;;;;;;1.70;1.60;;;5.80;99.90;;;;;;5075256;28;20207;-82
2023/12/14 03:43:03;;;;;;;1.70;1.60;;;5.80;99.90;;;;;;5077628;28;20664;-82
2023/12/14 03:45:29;;;;;;;1.73;1.63;;;5.80;99.90;;;;;;5082890;28;20192;-82
2023/12/14 03:47:56;;;;;;;1.90;1.80;;;5.80;99.90;;;;;;5079379;28;20197;-82
2023/12/14 03:50:24;;;;;;;1.80;1.70;;;5.70;99.90;;;;;;5080787;28;20691;-82
2023/12/14 03:52:51;;;;;;;2.53;2.30;;;5.70;99.90;;;;;;5073753;28;20201;-82
2023/12/14 03:55:18;;;;;;;2.00;1.80;;;5.60;99.90;;;;;;5076810;28;20196;-82
2023/12/14 03:57:45;;;;;;;2.67;2.13;;;5.60;99.90;;;;;;5073965;28;20214;-82
2023/12/14 04:00:13;;;;;;;2.20;2.00;;;5.80;99.90;;;;;;5079398;28;20220;-82
2023/12/14 04:02:40;;;;;;;2.05;1.90;;;5.70;99.90;;;;;;5082314;28;20246;-83
2023/12/14 04:05:08;;;;;;;2.20;1.87;;;5.70;99.90;;;;;;5082958;28;20278;-82
2023/12/14 04:07:39;;;;;;;2.30;2.10;;;5.70;99.90;;;;;;5073524;28;20215;-82
2023/12/14 04:10:07;;;;;;;2.25;2.05;;;5.80;99.90;;;;;;5079814;28;20193;-82
2023/12/14 04:12:34;;;;;;;3.10;2.35;;;5.80;99.90;;;;;;5078521;28;20217;-82
2023/12/14 04:15:00;;;;;;;2.13;1.90;;;5.90;99.90;;;;;;5077830;28;20217;-82
2023/12/14 04:17:27;;;;;;;2.03;1.93;;;5.90;99.90;;;;;;5075807;28;20193;-83
2023/12/14 04:19:54;;;;;;;1.70;1.60;;;5.80;99.90;;;;;;5081244;28;20688;-83
2023/12/14 04:22:21;;;;;;;1.83;1.73;;;5.80;99.90;;;;;;5074761;28;20193;-82
2023/12/14 04:24:49;;;;;;;1.98;1.80;;;5.70;99.90;;;;;;5079641;28;20203;-82
2023/12/14 04:27:16;;;;;;;2.13;1.90;;;5.70;99.90;;;;;;5079230;28;20760;-82
2023/12/14 04:29:43;;;;;;;1.88;1.73;;;5.80;99.90;;;;;;5078063;28;20200;-82
2023/12/14 04:32:10;;;;;;;1.93;1.70;;;5.90;99.90;;;;;;5081767;28;20193;-82
2023/12/14 04:34:37;;;;;;;2.00;1.80;;;6.00;99.90;;;;;;5085552;28;20311;-82
2023/12/14 04:37:04;;;;;;;1.90;1.80;;;5.80;99.90;;;;;;5080500;28;20215;-82
2023/12/14 04:39:30;;;;;;;1.80;1.70;;;5.80;99.90;;;;;;5077134;28;20575;-82
2023/12/14 04:41:59;;;;;;;2.45;1.90;;;5.70;99.90;;;;;;5077828;28;20207;-82
2023/12/14 04:44:25;;;;;;;2.20;1.80;;;5.70;99.90;;;;;;5077779;28;20201;-82
2023/12/14 04:46:52;;;;;;;2.03;1.87;;;5.70;99.90;;;;;;5080122;28;20192;-82
2023/12/14 04:49:20;;;;;;;1.88;1.77;;;5.70;99.90;;;;;;5078503;28;20201;-82
2023/12/14 04:51:47;;;;;;;2.37;1.90;;;5.80;99.90;;;;;;5083581;28;20253;-82
2023/12/14 04:54:13;;;;;;;2.13;1.93;;;5.70;99.90;;;;;;5082897;28;20220;-82
2023/12/14 04:56:41;;;;;;;1.80;1.70;;;5.70;99.90;;;;;;5089385;28;20206;-82
2023/12/14 04:59:09;;;;;;;1.85;1.73;;;5.60;99.90;;;;;;5086046;28;20312;-82
2023/12/14 05:01:38;;;;;;;3.57;1.70;;;5.60;99.90;;;;;;5084676;28;20203;-82
2023/12/14 05:04:05;;;;;;;1.60;1.50;;;5.60;99.90;;;;;;5080650;28;20205;-83
2023/12/14 05:06:33;;;;;;;1.48;1.38;;;5.70;99.90;;;;;;5079613;28;20198;-82
2023/12/14 05:09:04;;;;;;;1.80;1.70;;;5.60;99.90;;;;;;5077622;28;20658;-82
2023/12/14 05:11:30;;;;;;;1.48;1.35;;;5.60;99.90;;;;;;5083827;28;20206;-82
2023/12/14 05:13:57;;;;;;;1.50;1.40;;;5.60;99.90;;;;;;5084104;28;20220;-83
2023/12/14 05:16:26;;;;;;;1.33;1.23;;;5.60;99.90;;;;;;5091309;28;20197;-82
2023/12/14 05:18:53;;;;;;;1.27;1.17;;;5.70;99.90;;;;;;5081445;28;20251;-83
2023/12/14 05:21:20;;;;;;;1.40;1.30;;;5.70;99.90;;;;;;5076543;28;20193;-82
2023/12/14 05:23:47;;;;;;;1.23;1.17;;;5.60;99.90;;;;;;5084978;28;20200;-83
2023/12/14 05:26:14;;;;;;;1.17;1.10;;;5.60;99.90;;;;;;5079058;28;20210;-81
2023/12/14 05:28:41;;;;;;;2.53;1.60;;;5.60;99.90;;;;;;5080620;28;20201;-83
2023/12/14 05:31:08;;;;;;;1.50;1.40;;;5.60;99.90;;;;;;5077094;28;20196;-82
2023/12/14 05:33:39;;;;;;;3.83;1.50;;;5.60;99.90;;;;;;5083500;28;20211;-82
2023/12/14 05:36:10;;;;;;;1.70;1.50;;;5.70;99.90;;;;;;5084038;28;20196;-82
2023/12/14 05:38:37;;;;;;;1.55;1.42;;;5.70;99.90;;;;;;5080512;28;20246;-82
2023/12/14 05:41:04;;;;;;;1.40;1.30;;;5.80;99.90;;;;;;5080252;28;20223;-89
2023/12/14 05:43:31;;;;;;;1.70;1.60;;;5.70;99.90;;;;;;5081457;28;20201;-85
2023/12/14 05:45:58;;;;;;;2.03;1.60;;;5.80;99.90;;;;;;5081950;28;20209;-84
2023/12/14 05:48:26;;;;;;;2.53;1.80;;;5.90;99.90;;;;;;5079316;28;20549;-84
2023/12/14 05:50:54;;;;;;;1.98;1.60;;;5.80;99.90;;;;;;5082023;28;21243;-83
2023/12/14 05:53:21;;;;;;;1.90;1.80;;;5.70;99.90;;;;;;5083422;28;20204;-84
2023/12/14 05:55:48;;;;;;;1.90;1.60;;;5.70;99.90;;;;;;5086228;28;20567;-83
2023/12/14 05:58:15;;;;;;;2.10;1.80;;;5.70;99.90;;;;;;5083415;28;20204;-83
2023/12/14 06:00:42;;;;;;;2.37;1.83;;;5.70;99.90;;;;;;5084311;28;20277;-83
2023/12/14 06:03:09;;;;;;;6.07;2.10;;;5.70;99.90;;;;;;5082703;28;20196;-82
2023/12/14 06:05:36;;;;;;;2.50;2.30;;;5.60;99.90;;;;;;5085987;28;20197;-83
2023/12/14 06:08:05;;;;;;;1.85;1.75;;;5.70;99.90;;;;;;5088526;28;20207;-83
2023/12/14 06:10:32;;;;;;;3.77;2.17;;;5.70;99.90;;;;;;5087934;28;20215;-82
2023/12/14 06:12:59;;;;;;;2.75;2.28;;;5.80;99.90;;;;;;5079179;28;20194;-82
2023/12/14 06:15:26;;;;;;;2.40;2.13;;;5.80;99.90;;;;;;5074809;28;20213;-83
2023/12/14 06:17:53;;;;;;;2.50;2.30;;;5.80;99.90;;;;;;5083962;28;20488;-83
2023/12/14 06:20:19;;;;;;;2.80;2.40;;;5.80;99.90;;;;;;5084799;28;20209;-82
2023/12/14 06:22:46;;;;;;;3.53;3.00;;;5.70;99.90;;;;;;5094450;28;20207;-84
2023/12/14 06:25:14;;;;;;;2.90;2.70;;;5.60;99.90;;;;;;5077494;28;20199;-82
2023/12/14 06:27:43;;;;;;;3.57;2.93;;;5.60;99.90;;;;;;5079747;28;20556;-84
2023/12/14 06:30:10;;;;;;;3.33;2.70;;;5.60;99.90;;;;;;5081174;28;20196;-81
2023/12/14 06:32:37;;;;;;;4.40;2.90;;;5.80;99.90;;;;;;5082181;28;20606;-82
2023/12/14 06:35:05;;;;;;;5.53;2.85;;;5.80;99.90;;;;;;5082232;28;20203;-82
2023/12/14 06:37:31;;;;;;;3.53;3.23;;;5.80;99.90;;;;;;5089201;28;20656;-82
2023/12/14 06:39:58;;;;;;;3.47;2.73;;;5.80;99.90;;;;;;5082015;28;20224;-82
2023/12/14 06:42:28;;;;;;;3.50;3.10;;;5.70;99.90;;;;;;5083004;28;20196;-82
2023/12/14 06:44:55;;;;;;;3.95;2.88;;;5.80;99.90;;;;;;5085934;28;20640;-82
2023/12/14 06:47:22;;;;;;;4.90;2.77;;;5.80;99.90;;;;;;5078562;28;20197;-82
2023/12/14 06:49:50;;;;;;;4.00;2.97;;;5.90;99.90;;;;;;5084415;28;20209;-82
2023/12/14 06:52:16;;;;;;;5.10;3.15;;;5.90;99.90;;;;;;5090778;28;20809;-81
2023/12/14 06:54:43;;;;;;;3.38;2.97;;;5.80;99.90;;;;;;5079652;28;20205;-82
2023/12/14 06:57:10;;;;;;;5.35;3.17;;;5.70;99.90;;;;;;5083310;28;20208;-82
2023/12/14 06:59:38;;;;;;;3.60;3.20;;;5.70;99.90;;;;;;5079763;28;20224;-82
2023/12/14 07:02:05;;;;;;;4.37;3.37;;;5.80;99.90;;;;;;5079386;28;20208;-82
2023/12/14 07:04:32;;;;;;;5.78;3.45;;;5.80;99.90;;;;;;5085208;28;20212;-82
2023/12/14 07:06:59;;;;;;;5.68;3.25;;;5.90;99.90;;;;;;5085351;28;20203;-82
2023/12/14 07:09:26;;;;;;;3.67;2.87;;;6.10;99.90;;;;;;5078914;28;20200;-82
2023/12/14 07:11:53;;;;;;;6.93;3.20;;;6.10;99.90;;;;;;5081935;28;20962;-82
2023/12/14 07:14:20;;;;;;;6.10;3.33;;;6.00;99.90;;;;;;5085026;28;20219;-81
2023/12/14 07:16:48;;;;;;;6.80;3.80;;;6.00;99.90;;;;;;5081375;28;20211;-81
2023/12/14 07:19:15;;;;;;;10.48;3.70;;;6.00;99.90;;;;;;5082388;28;20369;-81
2023/12/14 07:21:42;;;;;;;9.07;4.00;;;6.20;99.90;;;;;;5077365;28;20237;-83
2023/12/14 07:24:08;;;;;;;10.15;4.85;;;6.20;99.90;;;;;;5083636;28;20204;-82
2023/12/14 07:26:35;;;;;;;10.75;4.53;;;6.40;99.90;;;;;;5081346;28;20212;-81
2023/12/14 07:29:02;;;;;;;10.40;4.65;;;6.40;99.90;;;;;;5078095;28;20211;-81
2023/12/14 07:31:29;;;;;;;13.10;5.10;;;6.30;99.90;;;;;;5085801;28;20279;-81
2023/12/14 07:33:58;;;;;;;7.85;5.05;;;6.10;99.90;;;;;;5079929;28;20262;-82
2023/12/14 07:36:25;;;;;;;11.60;5.20;;;6.20;99.90;;;;;;5077924;28;20201;-82
2023/12/14 07:38:52;;;;;;;8.88;5.32;;;6.20;99.90;;;;;;5078907;28;20207;-82
2023/12/14 07:41:19;;;;;;;7.40;4.90;;;6.00;99.90;;;;;;5086282;28;20297;-81
2023/12/14 07:43:46;;;;;;;5.15;4.43;;;6.00;99.90;;;;;;5084929;28;20207;-82
2023/12/14 07:46:13;;;;;;;11.07;4.90;;;5.90;99.90;;;;;;5081951;28;20193;-82
2023/12/14 07:48:39;;;;;;;5.50;4.75;;;6.20;99.90;;;;;;5079359;28;20203;-81
2023/12/14 07:51:07;;;;;;;5.20;4.53;;;6.40;99.90;;;;;;5081012;28;20210;-82
2023/12/14 07:53:34;;;;;;;5.05;4.25;;;6.40;99.90;;;;;;5086303;28;20206;-82
2023/12/14 07:56:02;;;;;;;5.28;4.40;;;6.50;99.90;;;;;;5084973;28;20204;-82
2023/12/14 07:58:30;;;;;;;7.38;4.32;;;6.70;99.90;;;;;;5078076;28;20291;-82
2023/12/14 08:00:57;;;;;;;5.32;4.18;;;6.80;99.90;;;;;;5081334;28;20224;-81
2023/12/14 08:03:23;;;;;;;8.32;4.90;;;6.80;99.90;;;;;;5086431;28;20195;-82
2023/12/14 08:05:51;;;;;;;6.22;4.60;;;6.70;99.90;;;;;;5081527;28;20204;-81
2023/12/14 08:08:19;;;;;;;8.27;4.45;;;6.70;99.90;;;;;;5080247;28;20199;-82
2023/12/14 08:10:45;;;;;;;7.63;4.28;;;6.80;99.90;;;;;;5082180;28;20212;-82
2023/12/14 08:13:12;;;;;;;5.70;4.28;;;6.70;99.90;;;;;;5074051;28;20653;-82
2023/12/14 08:15:39;;;;;;;4.85;4.20;;;6.70;99.90;;;;;;5076749;28;20534;-81
2023/12/14 08:18:07;;;;;;;10.23;4.57;;;6.70;99.90;;;;;;5079395;28;20658;-83
2023/12/14 08:20:34;;;;;;;5.60;4.10;;;6.70;99.90;;;;;;5075843;28;20218;-82
2023/12/14 08:23:01;;;;;;;4.35;3.85;;;6.70;99.90;;;;;;5080132;28;20200;-82
2023/12/14 08:25:29;;;;;;;5.50;4.15;;;6.60;99.90;;;;;;5086798;28;20199;-82
2023/12/14 08:27:56;;;;;;;6.22;4.00;;;6.50;99.90;;;;;;5081876;28;20242;-83
2023/12/14 08:30:23;;;;;;;6.82;4.63;;;6.70;99.90;;;;;;5071149;28;20212;-81
2023/12/14 08:32:50;;;;;;;4.53;3.88;;;6.80;99.90;;;;;;5079783;28;20204;-82
2023/12/14 08:35:17;;;;;;;6.70;4.47;;;6.80;99.90;;;;;;5080892;28;20275;-82
2023/12/14 08:37:44;;;;;;;5.03;4.50;;;6.70;99.90;;;;;;5079731;28;20208;-82
2023/12/14 08:40:12;;;;;;;6.70;4.90;;;6.70;99.90;;;;;;5079848;28;20629;-82
2023/12/14 08:42:41;;;;;;;7.82;4.38;;;6.60;99.90;;;;;;5081752;28;20558;-82
2023/12/14 08:45:11;;;;;;;5.55;4.60;;;6.60;99.90;;;;;;5085496;28;20213;-82
2023/12/14 08:47:38;;;;;;;4.68;4.00;;;6.70;99.90;;;;;;5077867;28;20209;-82
2023/12/14 08:50:07;;;;;;;4.47;4.07;;;6.50;99.90;;;;;;5076120;28;20211;-81
2023/12/14 08:52:34;;;;;;;8.40;4.40;;;6.50;99.90;;;;;;5074013;28;20254;-82
2023/12/14 08:55:02;;;;;;;6.07;4.65;;;6.60;99.90;;;;;;5084136;28;20204;-82
2023/12/14 08:57:28;;;;;;;6.05;3.75;;;6.60;99.90;;;;;;5090798;28;20553;-81
2023/12/14 08:59:57;;;;;;;5.45;4.25;;;6.70;99.90;;;;;;5083277;28;20786;-81
2023/12/14 09:02:23;;;;;;;5.15;4.38;;;6.80;99.90;;;;;;5077177;28;20197;-82
2023/12/14 09:04:51;;;;;;;4.57;3.65;;;7.00;99.90;;;;;;5082006;28;20192;-82
2023/12/14 09:07:18;;;;;;;4.35;3.80;;;7.00;99.90;;;;;;5076315;28;20793;-82
2023/12/14 09:09:45;;;;;;;5.30;3.63;;;7.10;99.90;;;;;;5083675;28;20569;-82
2023/12/14 09:12:12;;;;;;;4.43;3.95;;;7.10;99.90;;;;;;5081297;28;20196;-82
2023/12/14 09:14:39;;;;;;;4.57;3.80;;;7.20;99.90;;;;;;5071266;28;20232;-82
2023/12/14 09:17:07;;;;;;;25.23;16.75;;;7.00;99.90;;;;;;5082987;28;20194;-82
2023/12/14 09:19:34;;;;;;;45.60;34.15;;;6.90;99.90;;;;;;5078183;28;20200;-82
2023/12/14 09:22:00;;;;;;;38.15;27.63;;;6.90;99.90;;;;;;5086877;28;20235;-82
2023/12/14 09:24:27;;;;;;;5.80;4.22;;;6.80;99.90;;;;;;5077322;28;20200;-82
2023/12/14 09:26:54;;;;;;;7.22;4.57;;;6.80;99.90;;;;;;5083523;28;20201;-83
2023/12/14 09:29:21;;;;;;;6.65;4.70;;;6.80;99.90;;;;;;5086873;28;20663;-82
2023/12/14 09:31:48;;;;;;;7.20;5.80;;;6.80;99.90;;;;;;5086470;28;20201;-83
2023/12/14 09:34:16;;;;;;;7.85;5.13;;;6.80;99.90;;;;;;5082219;28;20198;-82
2023/12/14 09:36:43;;;;;;;5.93;4.47;;;6.70;99.90;;;;;;5073410;28;20209;-82
2023/12/14 09:39:10;;;;;;;5.53;4.20;;;6.80;99.90;;;;;;5079810;28;20548;-82
2023/12/14 09:41:37;;;;;;;5.45;4.20;;;6.70;99.90;;;;;;5082348;28;20224;-82
2023/12/14 09:44:05;;;;;;;4.05;3.60;;;6.70;99.90;;;;;;5084159;28;20205;-82
2023/12/14 09:46:33;;;;;;;4.95;4.05;;;6.70;99.90;;;;;;5084341;28;20242;-82
2023/12/14 09:49:02;;;;;;;5.28;4.40;;;6.60;99.90;;;;;;5087965;28;20197;-82
2023/12/14 09:51:30;;;;;;;4.65;3.33;;;6.80;99.90;;;;;;5079903;28;20220;-82
2023/12/14 09:53:58;;;;;;;4.57;3.80;;;6.80;99.90;;;;;;5083599;28;20208;-82
2023/12/14 09:56:25;;;;;;;3.55;3.25;;;6.80;99.90;;;;;;5081492;28;20193;-82
2023/12/14 09:58:52;;;;;;;5.22;3.10;;;6.70;99.90;;;;;;5082339;28;20561;-82
2023/12/14 10:01:25;;;;;;;5.10;3.70;;;6.60;99.90;;;;;;5081482;28;20302;-82
2023/12/14 10:04:08;;;;;;;3.78;3.13;;;6.60;99.90;;;;;;5091039;28;20203;-82
2023/12/14 10:06:36;;;;;;;4.35;3.17;;;6.60;99.90;;;;;;5087569;28;20287;-82
2023/12/14 10:09:03;;;;;;;4.78;3.80;;;6.50;99.90;;;;;;5079262;28;20201;-82
2023/12/14 10:11:30;;;;;;;4.80;3.55;;;6.50;99.90;;;;;;5086571;28;20663;-82
2023/12/14 10:13:57;;;;;;;5.03;3.80;;;6.60;99.90;;;;;;5085663;28;20593;-82
2023/12/14 10:16:31;;;;;;;4.13;3.40;;;6.80;99.90;;;;;;5080932;28;20197;-82
2023/12/14 10:18:59;;;;;;;4.80;3.10;;;6.80;99.90;;;;;;5084989;28;20224;-82
2023/12/14 10:21:26;;;;;;;3.65;2.72;;;6.70;99.90;;;;;;5088612;28;20220;-82
2023/12/14 10:23:56;;;;;;;4.60;2.72;;;6.60;99.90;;;;;;5080154;28;20197;-83
2023/12/14 10:26:25;;;;;;;3.33;2.30;;;6.60;99.90;;;;;;5087590;28;20193;-82
2023/12/14 10:28:52;;;;;;;4.70;2.47;;;6.70;99.90;;;;;;5081053;28;20251;-82
2023/12/14 10:31:20;;;;;;;3.50;2.88;;;6.80;99.90;;;;;;5087259;28;20208;-82
2023/12/14 10:33:47;;;;;;;3.30;2.65;;;6.90;99.90;;;;;;5082844;28;20205;-82
2023/12/14 10:36:16;;;;;;;2.75;2.45;;;6.80;99.90;;;;;;5080375;28;20200;-82
2023/12/14 10:38:44;;;;;;;3.13;2.67;;;6.90;99.90;;;;;;5081061;28;20204;-82
2023/12/14 10:41:14;;;;;;;2.78;2.45;;;6.90;99.90;;;;;;5086237;28;20213;-82
2023/12/14 10:43:46;;;;;;;4.32;2.45;;;6.80;99.90;;;;;;5085442;28;20209;-82
2023/12/14 10:46:15;;;;;;;2.53;2.33;;;6.90;99.90;;;;;;5065091;28;20197;-82
2023/12/14 10:48:44;;;;;;;4.60;2.40;;;6.80;99.90;;;;;;5080621;28;20197;-82
2023/12/14 10:51:13;;;;;;;3.50;2.20;;;6.80;99.90;;;;;;5081803;28;20228;-82
2023/12/14 10:53:43;;;;;;;2.75;2.17;;;6.70;99.90;;;;;;5084006;28;20754;-82
2023/12/14 10:56:12;;;;;;;5.32;2.50;;;6.80;99.90;;;;;;5082669;28;20572;-82
2023/12/14 10:58:47;;;;;;;2.50;2.30;;;6.70;99.90;;;;;;5081176;28;20194;-82
2023/12/14 11:01:15;;;;;;;2.30;2.10;;;6.70;99.90;;;;;;5083766;28;20269;-82
2023/12/14 11:03:43;;;;;;;2.60;2.40;;;6.70;99.90;;;;;;5076558;28;20220;-82
2023/12/14 11:06:22;;;;;;;3.22;2.70;;;6.50;99.90;;;;;;5078863;28;20622;-82
2023/12/14 11:08:49;;;;;;;2.75;2.40;;;6.50;99.90;;;;;;5078087;28;20200;-82
2023/12/14 11:11:20;;;;;;;3.28;2.88;;;6.60;99.90;;;;;;5082062;28;20201;-82
2023/12/14 11:13:52;;;;;;;3.40;2.90;;;6.50;99.90;;;;;;5086608;28;20731;-82
2023/12/14 11:16:21;;;;;;;3.50;2.40;;;6.60;99.90;;;;;;5082774;28;20199;-82
2023/12/14 11:18:48;;;;;;;3.10;2.80;;;6.60;99.90;;;;;;5086844;28;20207;-82
2023/12/14 11:21:21;;;;;;;2.85;2.60;;;6.60;99.90;;;;;;5083511;28;20217;-81
2023/12/14 11:23:51;;;;;;;3.15;2.83;;;6.80;99.90;;;;;;5082752;28;20200;-83
2023/12/14 11:26:28;;;;;;;2.90;2.50;;;6.90;99.90;;;;;;5087283;28;20200;-82
2023/12/14 11:28:55;;;;;;;3.20;2.90;;;7.00;99.90;;;;;;5078590;28;20582;-83
2023/12/14 11:31:23;;;;;;;2.53;2.33;;;7.10;99.90;;;;;;5081251;28;20202;-83
2023/12/14 11:33:49;;;;;;;2.97;2.78;;;7.20;99.90;;;;;;5079820;28;20204;-82
2023/12/14 11:36:17;;;;;;;4.97;2.53;;;7.20;99.90;;;;;;5087615;28;20726;-82
2023/12/14 11:38:44;;;;;;;3.00;2.70;;;7.10;99.90;;;;;;5086937;28;20806;-82
2023/12/14 11:41:11;;;;;;;2.78;2.58;;;7.10;99.90;;;;;;5081447;28;20216;-82
2023/12/14 11:43:43;;;;;;;2.70;2.38;;;7.30;99.90;;;;;;5083996;28;20212;-82
2023/12/14 11:46:10;;;;;;;2.90;2.10;;;7.40;99.90;;;;;;5078880;28;20653;-82
2023/12/14 11:48:37;;;;;;;2.47;2.28;;;7.50;99.90;;;;;;5081392;28;20211;-82
2023/12/14 11:51:04;;;;;;;3.03;2.08;;;7.30;99.90;;;;;;5085225;28;20204;-82
2023/12/14 11:53:32;;;;;;;3.08;2.40;;;7.40;99.90;;;;;;5088076;28;20331;-82
2023/12/14 11:56:02;;;;;;;2.28;2.08;;;7.40;99.90;;;;;;5079088;28;20209;-82
2023/12/14 11:58:29;;;;;;;2.55;2.20;;;7.50;99.90;;;;;;5081705;28;20653;-82
2023/12/14 12:00:57;;;;;;;2.53;2.30;;;7.50;99.90;;;;;;5085439;28;20657;-82
2023/12/14 12:03:24;;;;;;;2.50;2.08;;;7.50;99.90;;;;;;5081476;28;20211;-82
2023/12/14 12:05:52;;;;;;;2.47;2.03;;;7.60;99.90;;;;;;5088500;28;20197;-82
2023/12/14 12:08:20;;;;;;;2.30;1.60;;;7.70;99.90;;;;;;5090591;28;20192;-83
2023/12/14 12:10:48;;;;;;;2.92;1.80;;;7.70;99.90;;;;;;5079799;28;20636;-82
2023/12/14 12:13:16;;;;;;;1.80;1.70;;;7.90;99.90;;;;;;5087849;28;20558;-82
2023/12/14 12:15:43;;;;;;;1.73;1.63;;;8.00;99.90;;;;;;5078822;28;20211;-82
2023/12/14 12:18:12;;;;;;;2.08;1.80;;;8.10;99.80;;;;;;5084954;28;20201;-82
2023/12/14 12:20:39;;;;;;;2.40;1.63;;;8.20;99.80;;;;;;5082607;28;20197;-83
2023/12/14 12:23:06;;;;;;;3.47;1.70;;;8.10;99.50;;;;;;5091519;28;20227;-82
2023/12/14 12:25:34;;;;;;;2.50;2.00;;;8.00;99.00;;;;;;5084422;28;20210;-82
2023/12/14 12:28:02;;;;;;;2.85;1.80;;;7.90;98.60;;;;;;5084185;28;20200;-82
2023/12/14 12:30:30;;;;;;;2.70;1.90;;;7.70;99.00;;;;;;5077318;28;20248;-85
2023/12/14 12:32:57;;;;;;;3.25;1.90;;;7.80;99.00;;;;;;5084195;28;20200;-84
2023/12/14 12:35:26;;;;;;;3.10;2.08;;;7.70;99.40;;;;;;5085762;28;20193;-84
2023/12/14 12:37:54;;;;;;;2.03;1.90;;;7.60;99.80;;;;;;5077554;28;20231;-84
2023/12/14 12:40:22;;;;;;;2.72;2.00;;;7.50;99.90;;;;;;5077577;28;20200;-85
2023/12/14 12:42:49;;;;;;;4.30;1.90;;;7.60;99.90;;;;;;5087986;28;20333;-86
2023/12/14 12:45:17;;;;;;;2.30;1.75;;;7.50;99.90;;;;;;5078550;28;20652;-84
2023/12/14 12:47:44;;;;;;;3.58;1.90;;;7.60;99.80;;;;;;5078941;28;20196;-84
2023/12/14 12:50:11;;;;;;;2.75;1.80;;;7.60;99.80;;;;;;5075456;28;20215;-85
2023/12/14 12:52:42;;;;;;;1.73;1.60;;;7.60;99.30;;;;;;5083773;28;20197;-88
2023/12/14 12:55:10;;;;;;;3.50;2.22;;;7.70;98.90;;;;;;5078596;28;20285;-87
2023/12/14 12:57:37;;;;;;;3.42;2.10;;;7.70;99.00;;;;;;5080773;28;20224;-87
2023/12/14 13:00:07;;;;;;;1.60;1.50;;;7.70;99.20;;;;;;5079104;28;20201;-85